Crew | Aerofun Virtual



 METAR AND TAF INFORMATION
METAR FOR ULMM
ADDS - METARS form results

(1529 UTC 24 May 2019)
Data provider http://aviationweather.gov/metar/data/
 
METAR text: ULMM 241500Z 13001MPS 9999 SCT040 07/M07 Q1012 R31/090070 NOSIG RMK QFE752
Conditions at: ULMM (MURMANSK , RU) observed 1500 UTC 24 May 2019
Temperature: 7.0°C (45°F)
Dewpoint: -7.0°C (19°F) [RH = 36%]
Pressure (altimeter): 29.88 inches Hg (1012.0 mb)
Winds: from the SE (130 degrees) at 2 MPH (2 knots; 1.0 m/s)
Visibility: 6 or more miles (10+ km)
Ceiling: at least 12,000 feet AGL
Clouds: scattered clouds at 4000 feet AGL
Weather: no significant weather observed at this time

METAR text: ULMM 241430Z 05001MPS 9999 SCT040 07/M07 Q1013 R31/090070 NOSIG RMK QFE752
Conditions at: ULMM (MURMANSK , RU) observed 1430 UTC 24 May 2019
Temperature: 7.0°C (45°F)
Dewpoint: -7.0°C (19°F) [RH = 36%]
Pressure (altimeter): 29.91 inches Hg (1013.0 mb)
Winds: from the NE (50 degrees) at 2 MPH (2 knots; 1.0 m/s)
Visibility: 6 or more miles (10+ km)
Ceiling: at least 12,000 feet AGL
Clouds: scattered clouds at 4000 feet AGL
Weather: no significant weather observed at this time

Forecast for: ULMM (MURMANSK , RU)
Text: TAF ULMM 241351Z 2415/2515 21003MPS 9999 SCT020
Forecast period: 1500 UTC 24 May 2019 to 1500 UTC 25 May 2019
Forecast type: FROM: standard forecast or significant change
Winds: from the SSW (210 degrees) at 7 MPH (6 knots; 3.1 m/s)
Visibility: 6 or more miles 10+ km)
Ceiling: at least 12,000 feet AGL
Clouds: scattered clouds at 2000 feet AGL
Weather: no significant weather forecast for this period
Text: TEMPO 2415/2506 VRB01MPS
Forecast period: 1500 UTC 24 May 2019 to 0600 UTC 25 May 2019
Forecast type: TEMPORARY: The following changes expected for less than half the time period
Winds: variable direction winds at 2 MPH (2 knots; 1.0 m/s)
Visibility: missing
Ceiling: unknown
Clouds: missing
Weather: no significant weather forecast for this period
Text: TEMPO 2506/2515 16003G08MPS -SHRA BKN020CB
Forecast period: 0600 to 1500 UTC 25 May 2019
Forecast type: TEMPORARY: The following changes expected for less than half the time period
Winds: from the SSE (160 degrees) at 7 MPH (6 knots; 3.1 m/s)
gusting to 18 MPH (16 knots; 8.2 m/s)
Visibility: missing
Ceiling: 2000 feet AGL
Clouds: broken clouds at 2000 feet AGL
Weather: -SHRA  (light rain showers)

 AIRPORT MAP

 RUNWAY INFORMATION
Runway 14 Runway length 8202 ft Runway width 148 ft
Runway elevation 241 ft Runway displaced threshold 0 ft Runway heading 146
Runway 32 Runway length 8202 ft Runway width 148 ft
Runway elevation 266 ft Runway displaced threshold 0 ft Runway heading 326

 AIRPORT FREQUENCIES
Type PMSV Name METEO Frequency 127.4 MHZ
Type TWR Name TWR Frequency 120.3 MHZ

 AIRPORT NEAR NAVIGATION AIDS
Type NDB Name Murmansk Frequency 635 KHZ
Type NDB Name Murmansk Frequency 635 KHZ